Alexander, North Carolina
Current Conditions -  °F | °C
As of 7:54 PM on Tuesday 21 Oct 2014 (Local Time) from KAVL Reporting Station
Broken Clouds Broken Clouds  
Wind Chill: 56°   Ceiling: 5500
Heat Index: 56°   Visibility: 10mi
Dew Point: 40°   Wind: 14mph
Humidity: 55%   Direction: 350°N
Pressure: 29.99"   Gusts: NA
Location:  35.69°N, 82.66°W
Report Text: KAVL 212354Z 35012KT 10SM BKN055 13/04 A2999 RMK AO2 SLP150 T01330044 10194 20133 53013
Loading
Personal Weather Stations






























Interactive Weather Map New forecast layout! Learn more

10-Day Weather Forecast

Advertisements
Track Severe Weather on mobile